createdAt,value
2022-08-01T00:01:35.100Z,47.00
2022-08-01T00:04:03.770Z,47.01
2022-08-01T00:06:32.305Z,46.74
2022-08-01T00:09:00.855Z,46.91
2022-08-01T00:11:29.268Z,46.72
2022-08-01T00:13:59.716Z,46.81
2022-08-01T00:16:28.659Z,46.90
2022-08-01T00:18:57.518Z,47.11
2022-08-01T00:21:26.174Z,47.62
2022-08-01T00:23:54.653Z,47.90
2022-08-01T00:26:23.414Z,48.17
2022-08-01T00:28:51.993Z,48.57
2022-08-01T00:31:22.556Z,48.75
2022-08-01T00:33:51.467Z,48.92
2022-08-01T00:36:19.914Z,49.19
2022-08-01T00:38:48.807Z,49.20
2022-08-01T00:41:17.376Z,49.68
2022-08-01T00:43:45.904Z,49.81
2022-08-01T00:46:14.615Z,49.93
2022-08-01T00:48:44.577Z,50.00
2022-08-01T00:51:13.653Z,50.29
2022-08-01T00:53:51.711Z,50.25
2022-08-01T00:56:21.681Z,50.40
2022-08-01T00:58:50.521Z,50.42
2022-08-01T01:01:21.828Z,50.51
2022-08-01T01:04:00.370Z,50.87
2022-08-01T01:06:37.042Z,50.80
2022-08-01T01:09:18.310Z,51.08
2022-08-01T01:11:54.961Z,50.99
2022-08-01T01:14:33.275Z,50.94
2022-08-01T01:17:05.169Z,51.24
2022-08-01T01:19:41.880Z,51.17
2022-08-01T01:22:30.006Z,51.68
2022-08-01T01:25:10.526Z,51.38
2022-08-01T01:27:49.909Z,51.63
2022-08-01T01:30:21.339Z,51.74
2022-08-01T01:32:54.047Z,52.14
2022-08-01T01:35:25.953Z,52.06
2022-08-01T01:37:58.570Z,52.04
2022-08-01T01:40:28.441Z,52.12
2022-08-01T01:42:59.909Z,52.23
2022-08-01T01:45:32.623Z,52.24
2022-08-01T01:48:03.650Z,52.54
2022-08-01T01:50:33.288Z,52.60
2022-08-01T01:53:04.224Z,52.71
2022-08-01T01:55:36.408Z,52.62
2022-08-01T01:58:20.916Z,53.01
2022-08-01T02:00:55.461Z,53.20
2022-08-01T02:03:26.141Z,53.04
2022-08-01T02:05:58.213Z,53.48
2022-08-01T02:08:27.610Z,53.53
2022-08-01T02:11:18.027Z,53.84
2022-08-01T02:13:49.320Z,53.76
2022-08-01T02:16:19.890Z,54.10
2022-08-01T02:18:49.104Z,53.95
2022-08-01T02:21:23.744Z,54.17
2022-08-01T02:23:54.122Z,54.30
2022-08-01T02:26:25.230Z,54.56
2022-08-01T02:28:58.638Z,54.81
2022-08-01T02:31:29.925Z,54.73
2022-08-01T02:34:03.399Z,55.11
2022-08-01T02:36:35.380Z,55.12
2022-08-01T02:39:06.838Z,55.38
2022-08-01T02:41:39.072Z,55.37
2022-08-01T02:44:11.908Z,55.58
2022-08-01T02:46:47.981Z,55.41
2022-08-01T02:49:17.321Z,55.61
2022-08-01T02:51:49.319Z,55.53
2022-08-01T02:54:21.276Z,55.81
2022-08-01T02:56:51.170Z,55.59
2022-08-01T02:59:27.050Z,55.68
2022-08-01T03:01:58.693Z,55.92
2022-08-01T03:04:29.219Z,56.37
2022-08-01T03:06:59.813Z,55.78
2022-08-01T03:09:30.260Z,55.56
2022-08-01T03:12:01.516Z,56.06
2022-08-01T03:14:32.449Z,56.04
2022-08-01T03:17:03.537Z,56.21
2022-08-01T03:19:34.054Z,56.39
2022-08-01T03:22:05.337Z,56.08
2022-08-01T03:24:36.025Z,56.26
2022-08-01T03:27:06.356Z,56.42
2022-08-01T03:29:36.241Z,56.79
2022-08-01T03:32:08.204Z,56.82
2022-08-01T03:34:37.082Z,56.68
2022-08-01T03:37:11.026Z,57.05
2022-08-01T03:39:47.712Z,56.99
2022-08-01T03:42:20.930Z,56.80
2022-08-01T03:44:57.253Z,56.97
2022-08-01T03:47:32.293Z,56.86
2022-08-01T03:50:01.818Z,57.14
2022-08-01T03:52:32.407Z,57.11
2022-08-01T03:55:03.812Z,57.17
2022-08-01T03:57:36.108Z,57.10
2022-08-01T04:00:10.480Z,57.06
2022-08-01T04:02:40.894Z,57.53
2022-08-01T04:05:10.817Z,57.35
2022-08-01T04:07:40.405Z,57.17
2022-08-01T04:10:10.096Z,57.33
2022-08-01T04:12:38.545Z,57.82
2022-08-01T04:15:08.621Z,57.61
2022-08-01T04:17:37.073Z,57.79
2022-08-01T04:20:08.256Z,58.02
2022-08-01T04:22:37.367Z,57.93
2022-08-01T04:25:11.900Z,57.76
2022-08-01T04:27:48.613Z,57.75
2022-08-01T04:30:25.720Z,57.89
2022-08-01T04:32:56.973Z,57.91
2022-08-01T04:36:01.684Z,58.19
2022-08-01T04:38:24.272Z,58.01
2022-08-01T04:40:54.739Z,58.27
2022-08-01T04:43:24.141Z,58.22
2022-08-01T04:45:54.033Z,58.18
2022-08-01T04:48:23.399Z,58.01
2022-08-01T04:50:53.739Z,58.08
2022-08-01T04:53:24.183Z,58.16
2022-08-01T04:55:52.753Z,58.17
2022-08-01T04:58:21.649Z,58.21
2022-08-01T05:00:50.397Z,58.27
2022-08-01T05:03:18.830Z,58.52
2022-08-01T05:05:48.256Z,58.66
2022-08-01T05:08:18.385Z,58.78
2022-08-01T05:10:47.050Z,58.92
2022-08-01T05:13:17.048Z,59.26
2022-08-01T05:15:46.763Z,59.30
2022-08-01T05:18:15.257Z,59.86
2022-08-01T05:20:44.034Z,59.71
2022-08-01T05:23:29.790Z,59.99
2022-08-01T05:26:06.407Z,60.00
2022-08-01T05:28:34.870Z,60.04
2022-08-01T05:31:03.510Z,59.79
2022-08-01T05:33:31.925Z,59.64
2022-08-01T05:36:01.601Z,59.30
2022-08-01T05:38:30.134Z,59.39
2022-08-01T05:40:58.990Z,60.06
2022-08-01T05:43:29.313Z,60.39
2022-08-01T05:45:59.458Z,60.37
2022-08-01T05:48:28.089Z,60.61
2022-08-01T05:50:58.571Z,60.49
2022-08-01T05:53:27.628Z,60.57
2022-08-01T05:55:56.177Z,60.43
2022-08-01T05:58:25.488Z,60.39
2022-08-01T06:00:55.467Z,60.48
2022-08-01T06:03:24.266Z,60.43
2022-08-01T06:05:54.421Z,60.46
2022-08-01T06:08:22.860Z,59.96
2022-08-01T06:10:51.745Z,59.81
2022-08-01T06:13:20.891Z,59.65
2022-08-01T06:15:50.110Z,59.59
2022-08-01T06:18:20.537Z,59.47
2022-08-01T06:20:49.233Z,59.39
2022-08-01T06:23:32.706Z,59.40
2022-08-01T06:26:01.632Z,59.40
2022-08-01T06:28:30.810Z,58.93
2022-08-01T06:31:00.937Z,58.92
2022-08-01T06:33:31.009Z,58.81
2022-08-01T06:36:00.160Z,58.55
2022-08-01T06:38:28.609Z,57.98
2022-08-01T06:40:58.042Z,58.00
2022-08-01T06:43:27.170Z,57.75
2022-08-01T06:45:55.662Z,57.16
2022-08-01T06:48:24.129Z,56.92
2022-08-01T06:51:09.136Z,56.78
2022-08-01T06:53:38.728Z,56.56
2022-08-01T06:56:09.798Z,56.34
2022-08-01T06:58:38.524Z,55.98
2022-08-01T07:01:08.627Z,55.93
2022-08-01T07:03:54.508Z,56.07
2022-08-01T07:06:27.600Z,56.11
2022-08-01T07:08:56.323Z,55.97
2022-08-01T07:11:25.868Z,55.89
2022-08-01T07:13:54.720Z,55.50
2022-08-01T07:16:23.273Z,55.55
2022-08-01T07:18:52.225Z,55.51
2022-08-01T07:21:40.767Z,55.34
2022-08-01T07:24:15.164Z,55.23
2022-08-01T07:26:53.169Z,55.07
2022-08-01T07:29:24.468Z,54.75
2022-08-01T07:31:54.189Z,54.60
2022-08-01T07:34:23.353Z,54.74
2022-08-01T07:36:52.431Z,54.62
2022-08-01T07:39:22.402Z,54.86
2022-08-01T07:42:06.581Z,54.96
2022-08-01T07:44:36.726Z,55.25
2022-08-01T07:47:06.120Z,55.37
2022-08-01T07:49:39.599Z,55.49
2022-08-01T07:52:08.651Z,55.54
2022-08-01T07:54:38.771Z,55.41
2022-08-01T07:57:08.359Z,55.44
2022-08-01T07:59:37.236Z,55.28
2022-08-01T08:02:06.282Z,55.47
2022-08-01T08:04:35.143Z,55.47
2022-08-01T08:07:05.021Z,55.78
2022-08-01T08:09:37.309Z,55.95
2022-08-01T08:12:09.704Z,56.06
2022-08-01T08:14:39.447Z,56.06
2022-08-01T08:17:08.649Z,56.06
2022-08-01T08:19:39.653Z,56.16
2022-08-01T08:22:09.898Z,56.31
2022-08-01T08:24:46.282Z,56.30
2022-08-01T08:27:17.256Z,57.05
2022-08-01T08:29:49.442Z,57.62
2022-08-01T08:32:17.878Z,58.29
2022-08-01T08:34:47.149Z,58.58
2022-08-01T08:37:18.332Z,59.38
2022-08-01T08:39:49.439Z,59.85
2022-08-01T08:42:20.705Z,60.17
2022-08-01T08:44:49.676Z,60.31
2022-08-01T08:47:20.546Z,60.90
2022-08-01T08:49:50.816Z,60.76
2022-08-01T08:52:21.292Z,61.08
2022-08-01T08:54:50.961Z,61.14
2022-08-01T08:57:22.814Z,61.49
2022-08-01T08:59:55.319Z,61.49
2022-08-01T09:02:24.539Z,62.04
2022-08-01T09:04:53.855Z,62.47
2022-08-01T09:07:24.234Z,62.44
2022-08-01T09:09:52.795Z,62.43
2022-08-01T09:12:23.968Z,62.21
2022-08-01T09:14:54.645Z,62.49
2022-08-01T09:17:23.554Z,62.95
2022-08-01T09:19:54.491Z,62.88
2022-08-01T09:22:25.250Z,63.08
2022-08-01T09:25:01.945Z,63.13
2022-08-01T09:27:32.037Z,63.03
2022-08-01T09:30:12.027Z,62.72
2022-08-01T09:32:55.610Z,62.84
2022-08-01T09:35:29.856Z,62.68
2022-08-01T09:38:15.830Z,62.32
2022-08-01T09:40:52.827Z,62.15
2022-08-01T09:43:24.925Z,62.31
2022-08-01T09:45:53.809Z,62.08
2022-08-01T09:48:28.807Z,61.77
2022-08-01T09:51:04.838Z,61.79
2022-08-01T09:53:52.279Z,61.71
2022-08-01T09:56:23.157Z,61.83
2022-08-01T09:59:02.814Z,61.77
2022-08-01T10:01:44.158Z,61.43
2022-08-01T10:04:15.248Z,60.84
2022-08-01T10:06:46.101Z,60.90
2022-08-01T10:09:15.821Z,60.72
2022-08-01T10:11:45.564Z,60.20
2022-08-01T10:14:17.860Z,59.36
2022-08-01T10:16:52.894Z,58.95
2022-08-01T10:19:24.509Z,58.83
2022-08-01T10:21:58.210Z,58.57
2022-08-01T10:24:30.586Z,58.50
2022-08-01T10:27:08.261Z,58.42
2022-08-01T10:29:45.639Z,57.86
2022-08-01T10:32:15.521Z,57.45
2022-08-01T10:34:44.951Z,56.61
2022-08-01T10:37:17.061Z,56.55
2022-08-01T10:39:46.991Z,56.69
2022-08-01T10:42:16.082Z,56.48
2022-08-01T10:44:49.023Z,56.18
2022-08-01T10:47:26.748Z,55.82
2022-08-01T10:50:06.051Z,55.32
2022-08-01T10:52:39.578Z,55.45
2022-08-01T10:55:11.013Z,55.50
2022-08-01T10:57:52.700Z,54.95
2022-08-01T11:00:25.388Z,54.73
2022-08-01T11:03:04.350Z,54.36
2022-08-01T11:05:35.779Z,54.08
2022-08-01T11:08:08.858Z,53.52
2022-08-01T11:10:40.374Z,53.49
2022-08-01T11:13:09.960Z,53.16
2022-08-01T11:15:50.008Z,53.07
2022-08-01T11:18:33.131Z,53.03
2022-08-01T11:21:59.202Z,52.77
2022-08-01T11:23:53.073Z,52.33
2022-08-01T11:26:28.794Z,51.49
2022-08-01T11:29:20.528Z,51.08
2022-08-01T11:31:52.980Z,51.27
2022-08-01T11:34:22.286Z,51.03
2022-08-01T11:37:09.797Z,50.83
2022-08-01T11:39:39.070Z,49.86
2022-08-01T11:42:30.458Z,49.36
2022-08-01T11:44:59.022Z,49.96
2022-08-01T11:47:50.225Z,49.80
2022-08-01T11:50:33.338Z,49.61
2022-08-01T11:53:02.477Z,49.82
2022-08-01T11:55:32.604Z,49.90
2022-08-01T11:58:02.973Z,49.92
2022-08-01T12:00:32.761Z,49.89
2022-08-01T12:03:04.750Z,49.23
2022-08-01T12:05:43.370Z,49.03
2022-08-01T12:08:13.046Z,48.95
2022-08-01T12:10:47.140Z,48.66
2022-08-01T12:13:19.224Z,48.77
2022-08-01T12:15:50.561Z,48.54
2022-08-01T12:18:23.494Z,48.40
2022-08-01T12:20:57.123Z,48.65
2022-08-01T12:23:26.249Z,48.33
2022-08-01T12:25:55.744Z,47.84
2022-08-01T12:28:24.402Z,47.83
2022-08-01T12:30:53.168Z,47.94
2022-08-01T12:33:23.529Z,47.97
2022-08-01T12:35:53.938Z,47.80
2022-08-01T12:38:26.175Z,48.00
2022-08-01T12:40:55.010Z,48.10
2022-08-01T12:43:28.883Z,48.04
2022-08-01T12:46:00.780Z,47.23
2022-08-01T12:48:33.555Z,45.95
2022-08-01T12:51:03.400Z,45.68
2022-08-01T12:53:40.337Z,44.35
2022-08-01T12:56:11.750Z,44.12
2022-08-01T12:58:41.051Z,43.97
2022-08-01T13:01:11.719Z,44.35
2022-08-01T13:03:42.754Z,44.04
2022-08-01T13:06:16.461Z,44.27
2022-08-01T13:08:47.825Z,44.22
2022-08-01T13:11:19.259Z,44.38
2022-08-01T13:13:49.400Z,44.22
2022-08-01T13:16:30.962Z,44.06
2022-08-01T13:19:08.742Z,44.07
2022-08-01T13:21:53.754Z,43.54
2022-08-01T13:24:28.430Z,43.46
2022-08-01T13:27:00.878Z,42.47
2022-08-01T13:29:34.158Z,42.56
2022-08-01T13:32:27.604Z,42.65
2022-08-01T13:35:06.046Z,42.79
2022-08-01T13:37:34.719Z,42.58
2022-08-01T13:40:03.549Z,42.59
2022-08-01T13:42:33.092Z,42.72
2022-08-01T13:45:01.588Z,42.92
2022-08-01T13:47:32.598Z,42.76
2022-08-01T13:50:04.169Z,42.31
2022-08-01T13:52:37.000Z,42.63
2022-08-01T13:55:09.185Z,42.61
2022-08-01T13:57:39.630Z,42.23
2022-08-01T14:00:10.927Z,42.19
2022-08-01T14:02:39.340Z,41.53
2022-08-01T14:05:08.773Z,41.61
2022-08-01T14:07:38.752Z,41.43
2022-08-01T14:10:19.655Z,41.54
2022-08-01T14:12:49.975Z,41.19
2022-08-01T14:15:38.893Z,41.34
2022-08-01T14:18:10.690Z,41.69
2022-08-01T14:20:40.794Z,41.29
2022-08-01T14:23:11.297Z,41.32
2022-08-01T14:26:03.693Z,40.87
2022-08-01T14:28:29.701Z,40.66
2022-08-01T14:30:58.352Z,40.60
2022-08-01T14:33:27.352Z,40.49
2022-08-01T14:36:05.968Z,40.30
2022-08-01T14:38:46.797Z,40.25
2022-08-01T14:41:15.886Z,39.96
2022-08-01T14:43:44.405Z,39.74
2022-08-01T14:46:13.823Z,39.13
2022-08-01T14:48:42.654Z,39.47
2022-08-01T14:51:11.554Z,39.24
2022-08-01T14:53:42.904Z,39.53
2022-08-01T14:56:20.688Z,39.20
2022-08-01T14:58:49.524Z,39.00
2022-08-01T15:01:19.229Z,38.50
2022-08-01T15:03:49.147Z,38.50
2022-08-01T15:06:17.898Z,38.20
2022-08-01T15:08:46.465Z,38.33
2022-08-01T15:11:15.371Z,38.83
2022-08-01T15:13:45.457Z,38.49
2022-08-01T15:16:14.642Z,38.37
2022-08-01T15:18:43.365Z,38.32
2022-08-01T15:21:17.328Z,38.16
2022-08-01T15:23:58.062Z,38.07
2022-08-01T15:26:26.633Z,37.70
2022-08-01T15:28:56.813Z,37.79
2022-08-01T15:31:25.376Z,37.92
2022-08-01T15:33:56.186Z,37.35
2022-08-01T15:36:25.797Z,37.44
2022-08-01T15:38:55.076Z,37.31
2022-08-01T15:41:23.952Z,37.26
2022-08-01T15:43:55.948Z,37.05
2022-08-01T15:46:26.638Z,37.37
2022-08-01T15:48:55.554Z,37.07
2022-08-01T15:51:24.167Z,37.13
2022-08-01T15:53:52.780Z,37.12
2022-08-01T15:56:21.224Z,37.33
2022-08-01T15:58:49.701Z,37.36
2022-08-01T16:01:18.653Z,37.44
2022-08-01T16:03:49.150Z,37.72
2022-08-01T16:06:17.758Z,37.68
2022-08-01T16:08:46.307Z,38.17
2022-08-01T16:11:15.066Z,38.00
2022-08-01T16:13:44.037Z,38.01
2022-08-01T16:16:12.714Z,38.09
2022-08-01T16:18:41.320Z,38.28
2022-08-01T16:21:12.924Z,38.63
2022-08-01T16:23:41.597Z,39.06
2022-08-01T16:26:15.605Z,38.86
2022-08-01T16:28:58.146Z,39.07
2022-08-01T16:31:37.526Z,39.29
2022-08-01T16:34:15.845Z,39.52
2022-08-01T16:36:45.711Z,39.73
2022-08-01T16:39:15.803Z,39.46
2022-08-01T16:41:46.841Z,40.00
2022-08-01T16:44:16.520Z,40.21
2022-08-01T16:46:57.113Z,39.89
2022-08-01T16:49:25.631Z,40.02
2022-08-01T16:51:55.505Z,39.91
2022-08-01T16:54:26.001Z,40.37
2022-08-01T16:56:56.096Z,40.28
2022-08-01T16:59:41.002Z,40.13
2022-08-01T17:02:11.427Z,40.58
2022-08-01T17:04:40.268Z,40.70
2022-08-01T17:07:10.455Z,40.60
2022-08-01T17:09:47.769Z,40.63
2022-08-01T17:25:47.548Z,41.22
2022-08-01T17:28:16.732Z,41.41
2022-08-01T17:30:45.418Z,41.50
2022-08-01T17:36:06.852Z,41.57
2022-08-01T17:38:36.404Z,41.83
2022-08-01T17:41:06.421Z,41.71
2022-08-01T17:43:35.201Z,41.56
2022-08-01T17:46:03.740Z,41.53
2022-08-01T17:48:32.219Z,41.83
2022-08-01T17:51:01.144Z,41.85
2022-08-01T17:53:29.546Z,42.00
2022-08-01T17:55:59.047Z,41.85
2022-08-01T17:58:36.792Z,42.28
2022-08-01T18:01:19.961Z,42.09
2022-08-01T18:03:49.032Z,42.51
2022-08-01T18:06:18.999Z,42.36
2022-08-01T18:08:49.590Z,42.70
2022-08-01T18:11:21.962Z,42.77
2022-08-01T18:13:51.940Z,42.59
2022-08-01T18:16:20.605Z,42.87
2022-08-01T18:18:49.125Z,42.83
2022-08-01T18:21:17.789Z,42.87
2022-08-01T18:23:51.271Z,43.10
2022-08-01T18:26:19.969Z,43.28
2022-08-01T18:28:50.481Z,43.48
2022-08-01T18:31:22.343Z,43.45
2022-08-01T18:33:52.283Z,43.60
2022-08-01T18:36:31.698Z,43.54
2022-08-01T18:39:06.193Z,43.94
2022-08-01T18:41:38.871Z,43.99
2022-08-01T18:44:09.561Z,44.17
2022-08-01T18:46:42.656Z,44.45
2022-08-01T18:49:13.389Z,44.47
2022-08-01T18:51:45.180Z,44.76
2022-08-01T18:54:16.827Z,44.97
2022-08-01T18:56:47.920Z,45.29
2022-08-01T18:59:17.931Z,45.53
2022-08-01T19:01:59.734Z,45.44
2022-08-01T19:04:31.042Z,45.61
2022-08-01T19:07:02.234Z,45.53
2022-08-01T19:09:32.729Z,45.70
2022-08-01T19:12:02.762Z,45.85
2022-08-01T19:14:32.711Z,46.19
2022-08-01T19:17:04.989Z,46.07
2022-08-01T19:19:33.859Z,46.21
2022-08-01T19:22:02.591Z,46.52
2022-08-01T19:24:31.144Z,46.65
2022-08-01T19:27:05.239Z,46.92
2022-08-01T19:29:43.734Z,47.13
2022-08-01T19:32:14.958Z,47.09
2022-08-01T19:34:51.491Z,47.39
2022-08-01T19:37:27.001Z,47.41
2022-08-01T19:39:58.507Z,47.52
2022-08-01T19:42:32.863Z,47.54
2022-08-01T19:45:02.709Z,47.66
2022-08-01T19:47:56.733Z,47.93
2022-08-01T19:51:10.947Z,48.09
2022-08-01T19:53:44.056Z,48.16
2022-08-01T19:56:14.165Z,48.23
2022-08-01T19:58:44.912Z,48.55
2022-08-01T20:01:16.370Z,48.42
2022-08-01T20:03:49.670Z,48.73
2022-08-01T20:06:18.695Z,48.80
2022-08-01T20:08:54.198Z,49.23
2022-08-01T20:11:24.254Z,49.14
2022-08-01T20:13:53.960Z,49.09
2022-08-01T20:16:23.201Z,49.32
2022-08-01T20:18:56.357Z,49.46
2022-08-01T20:21:26.723Z,49.64
2022-08-01T20:24:02.706Z,49.83
2022-08-01T20:26:33.305Z,50.01
2022-08-01T20:29:04.000Z,49.94
2022-08-01T20:31:42.882Z,50.00
2022-08-01T20:34:19.229Z,50.21
2022-08-01T20:36:56.420Z,50.10
2022-08-01T20:42:26.481Z,50.53
2022-08-01T20:44:57.582Z,50.48
2022-08-01T20:47:28.520Z,50.58
2022-08-01T20:50:49.523Z,50.73
2022-08-01T20:53:11.075Z,50.92
2022-08-01T20:55:47.053Z,50.95
2022-08-01T20:58:22.394Z,50.88
2022-08-01T21:00:58.219Z,51.02
2022-08-01T21:03:32.581Z,51.24
2022-08-01T21:06:09.306Z,51.09
2022-08-01T21:08:43.896Z,51.47
2022-08-01T21:11:17.487Z,51.43
2022-08-01T21:13:48.769Z,51.64
2022-08-01T21:16:25.031Z,51.44
2022-08-01T21:19:18.459Z,51.59
2022-08-01T21:21:52.873Z,51.56
2022-08-01T21:24:26.918Z,51.57
2022-08-01T21:26:56.410Z,51.54
2022-08-01T21:29:27.077Z,51.56
2022-08-01T21:32:09.918Z,51.76
2022-08-01T21:34:40.603Z,51.91
2022-08-01T21:37:11.205Z,51.97
2022-08-01T21:39:40.493Z,51.85
2022-08-01T21:42:09.712Z,51.97
2022-08-01T21:44:40.321Z,51.82
2022-08-01T21:47:11.756Z,52.00
2022-08-01T21:49:41.809Z,52.17
2022-08-01T21:52:15.504Z,52.22
2022-08-01T21:55:02.761Z,52.25
2022-08-01T21:57:43.963Z,52.52
2022-08-01T22:00:20.985Z,52.71
2022-08-01T22:03:02.238Z,52.66
2022-08-01T22:05:49.768Z,52.61
2022-08-01T22:08:26.111Z,52.87
2022-08-01T22:11:00.456Z,52.89
2022-08-01T22:13:29.398Z,52.92
2022-08-01T22:15:58.900Z,52.99
2022-08-01T22:18:29.292Z,52.96
2022-08-01T22:20:58.025Z,53.14
2022-08-01T22:23:29.421Z,53.19
2022-08-01T22:25:58.414Z,53.26
2022-08-01T22:28:27.173Z,53.33
2022-08-01T22:30:57.269Z,53.26
2022-08-01T22:33:26.983Z,53.30
2022-08-01T22:35:57.719Z,53.39
2022-08-01T22:38:28.087Z,53.59
2022-08-01T22:41:03.331Z,53.77
2022-08-01T22:43:36.370Z,53.98
2022-08-01T22:46:26.913Z,54.03
2022-08-01T22:49:02.757Z,53.92
2022-08-01T22:51:54.399Z,53.91
2022-08-01T22:54:33.426Z,54.13
2022-08-01T22:57:07.576Z,54.07
2022-08-01T22:59:47.965Z,54.05
2022-08-01T23:02:17.948Z,54.06
2022-08-01T23:04:49.572Z,54.35
2022-08-01T23:07:24.356Z,54.37
2022-08-01T23:09:57.127Z,54.18
2022-08-01T23:12:27.070Z,54.50
2022-08-01T23:14:56.870Z,54.58
2022-08-01T23:17:28.878Z,54.54
2022-08-01T23:19:59.962Z,54.33
2022-08-01T23:22:31.474Z,54.60
2022-08-01T23:25:04.556Z,54.33
2022-08-01T23:27:54.110Z,54.71
2022-08-01T23:30:27.362Z,54.72
2022-08-01T23:32:56.312Z,54.66
2022-08-01T23:35:25.222Z,54.84
2022-08-01T23:38:01.835Z,54.99
2022-08-01T23:40:34.510Z,55.19
2022-08-01T23:43:04.205Z,55.22
2022-08-01T23:46:02.102Z,55.10
2022-08-01T23:48:21.931Z,55.35
2022-08-01T23:50:52.584Z,55.27
2022-08-01T23:53:21.105Z,55.36
2022-08-01T23:55:51.026Z,55.42
2022-08-01T23:58:22.801Z,55.77
